^^
Station Historical Data
Daily Summary for April 17, 2017 Units:  Both    English   Metric
« Previous Day
Next Day »
Daily Weekly Monthly Yearly Custom
  High: Low: Average:
Temperature: 78.4 °F /  25.8 °C 59.9 °F /  15.5 °C 65.6 °F /  18.7 °C
Dew Point: 57.0 °F /  13.9 °C 43.9 °F /  6.6 °C 52.7 °F /  11.5 °C
Humidity: 78% 34% 64%
Wind Speed: 10.1mph /  16.3km/h - 1.1mph /  1.8km/h
Wind Gust: 12.0mph /  19.3km/h - -
Wind- - SSE
Pressure: 29.98 in /  1015.1 hPa 29.87 in /  1011.4 hPa -
Precipitation: 0.00 in /  0 mm    
Historical Graphs
 
 
Tabular Data for April 17, 2017
Time Temperature Dew Point Pressure Wind Wind Speed Wind Gust Humidity Rainfall Rate (Hourly) solar Conditions
00:03 62.2 °F /  16.8 °C 52.7 °F /  11.5 °C 29.91in /  1012.8hPa SE 2.9mph /  4.7km/h 3.0mph /  4.8km/h 71% 0.00in /  0mm 0.0 W/m2
00:09 62.2 °F /  16.8 °C 52.0 °F /  11.1 °C 29.91in /  1012.8hPa SE 0.9mph /  1.4km/h 2.0mph /  3.2km/h 69% 0.00in /  0mm 0.0 W/m2
00:15 62.4 °F /  16.9 °C 52.2 °F /  11.2 °C 29.91in /  1012.8hPa Calm   2.0mph /  3.2km/h 69% 0.00in /  0mm 0.0 W/m2
00:22 62.8 °F /  17.1 °C 52.0 °F /  11.1 °C 29.91in /  1012.8hPa SSE 4.0mph /  6.4km/h 5.0mph /  8km/h 68% 0.00in /  0mm 0.0 W/m2
00:28 63.0 °F /  17.2 °C 52.2 °F /  11.2 °C 29.91in /  1012.8hPa SE 0.9mph /  1.4km/h 2.0mph /  3.2km/h 68% 0.00in /  0mm 0.0 W/m2
00:34 63.0 °F /  17.2 °C 52.2 °F /  11.2 °C 29.91in /  1012.8hPa Calm   3.0mph /  4.8km/h 68% 0.00in /  0mm 0.0 W/m2
00:40 63.1 °F /  17.3 °C 52.3 °F /  11.3 °C 29.91in /  1012.8hPa Calm     68% 0.00in /  0mm 0.0 W/m2
00:46 63.1 °F /  17.3 °C 52.3 °F /  11.3 °C 29.91in /  1012.8hPa Calm   2.0mph /  3.2km/h 68% 0.00in /  0mm 0.0 W/m2
00:52 63.1 °F /  17.3 °C 52.3 °F /  11.3 °C 29.91in /  1012.8hPa Calm   1.0mph /  1.6km/h 68% 0.00in /  0mm 0.0 W/m2
00:58 63.1 °F /  17.3 °C 52.9 °F /  11.6 °C 29.91in /  1012.8hPa ESE 0.9mph /  1.4km/h 2.0mph /  3.2km/h 69% 0.00in /  0mm 0.0 W/m2
01:05 63.0 °F /  17.2 °C 53.1 °F /  11.7 °C 29.90in /  1012.4hPa ESE 2.0mph /  3.2km/h 3.0mph /  4.8km/h 70% 0.00in /  0mm 0.0 W/m2
01:11 62.8 °F /  17.1 °C 53.2 °F /  11.8 °C 29.90in /  1012.4hPa Calm   2.0mph /  3.2km/h 71% 0.00in /  0mm 0.0 W/m2
01:17 62.4 °F /  16.9 °C 53.2 °F /  11.8 °C 29.90in /  1012.4hPa Calm   1.0mph /  1.6km/h 72% 0.00in /  0mm 0.0 W/m2
01:23 62.2 °F /  16.8 °C 53.4 °F /  11.9 °C 29.90in /  1012.4hPa Calm   1.0mph /  1.6km/h 73% 0.00in /  0mm 0.0 W/m2
01:29 62.1 °F /  16.7 °C 53.2 °F /  11.8 °C 29.89in /  1012.1hPa Calm   1.0mph /  1.6km/h 73% 0.00in /  0mm 0.0 W/m2
01:35 61.9 °F /  16.6 °C 53.4 °F /  11.9 °C 29.89in /  1012.1hPa Calm     74% 0.00in /  0mm 0.0 W/m2
01:41 61.7 °F /  16.5 °C 53.2 °F /  11.8 °C 29.89in /  1012.1hPa Calm     74% 0.00in /  0mm 0.0 W/m2
01:47 61.5 °F /  16.4 °C 53.6 °F /  12 °C 29.89in /  1012.1hPa Calm     75% 0.00in /  0mm 0.0 W/m2
01:54 61.5 °F /  16.4 °C 53.6 °F /  12 °C 29.89in /  1012.1hPa Calm     75% 0.00in /  0mm 0.0 W/m2
02:00 61.3 °F /  16.3 °C 53.8 °F /  12.1 °C 29.89in /  1012.1hPa Calm   1.0mph /  1.6km/h 76% 0.00in /  0mm 0.0 W/m2
02:06 61.3 °F /  16.3 °C 54.1 °F /  12.3 °C 29.89in /  1012.1hPa Calm   2.0mph /  3.2km/h 77% 0.00in /  0mm 0.0 W/m2
02:18 61.3 °F /  16.3 °C 53.8 °F /  12.1 °C 29.89in /  1012.1hPa Calm   2.0mph /  3.2km/h 76% 0.00in /  0mm 0.0 W/m2
02:24 61.3 °F /  16.3 °C 54.1 °F /  12.3 °C 29.88in /  1011.7hPa Calm   1.0mph /  1.6km/h 77% 0.00in /  0mm 0.0 W/m2
02:30 61.2 °F /  16.2 °C 54.0 °F /  12.2 °C 29.88in /  1011.7hPa Calm   1.0mph /  1.6km/h 77% 0.00in /  0mm 0.0 W/m2
02:36 61.2 °F /  16.2 °C 54.0 °F /  12.2 °C 29.88in /  1011.7hPa Calm   1.0mph /  1.6km/h 77% 0.00in /  0mm 0.0 W/m2
02:42 61.2 °F /  16.2 °C 54.0 °F /  12.2 °C 29.88in /  1011.7hPa Calm   2.0mph /  3.2km/h 77% 0.00in /  0mm 0.0 W/m2
02:49 61.2 °F /  16.2 °C 54.0 °F /  12.2 °C 29.88in /  1011.7hPa Calm   1.0mph /  1.6km/h 77% 0.00in /  0mm 0.0 W/m2
02:55 61.2 °F /  16.2 °C 54.0 °F /  12.2 °C 29.88in /  1011.7hPa Calm     77% 0.00in /  0mm 0.0 W/m2
03:01 61.0 °F /  16.1 °C 53.8 °F /  12.1 °C 29.88in /  1011.7hPa Calm     77% 0.00in /  0mm 0.0 W/m2
03:07 61.0 °F /  16.1 °C 53.8 °F /  12.1 °C 29.88in /  1011.7hPa Calm     77% 0.00in /  0mm 0.0 W/m2
03:13 61.0 °F /  16.1 °C 53.8 °F /  12.1 °C 29.88in /  1011.7hPa Calm   1.0mph /  1.6km/h 77% 0.00in /  0mm 0.0 W/m2
03:19 61.2 °F /  16.2 °C 54.0 °F /  12.2 °C 29.88in /  1011.7hPa Calm     77% 0.00in /  0mm 0.0 W/m2
03:25 61.2 °F /  16.2 °C 54.3 °F /  12.4 °C 29.88in /  1011.7hPa Calm   2.0mph /  3.2km/h 78% 0.00in /  0mm 0.0 W/m2
03:32 61.2 °F /  16.2 °C 54.0 °F /  12.2 °C 29.88in /  1011.7hPa Calm   1.0mph /  1.6km/h 77% 0.00in /  0mm 0.0 W/m2
03:38 61.0 °F /  16.1 °C 53.8 °F /  12.1 °C 29.88in /  1011.7hPa Calm     77% 0.00in /  0mm 0.0 W/m2
03:44 61.2 °F /  16.2 °C 54.0 °F /  12.2 °C 29.88in /  1011.7hPa Calm   3.0mph /  4.8km/h 77% 0.00in /  0mm 0.0 W/m2
03:50 61.2 °F /  16.2 °C 54.0 °F /  12.2 °C 29.88in /  1011.7hPa East 0.9mph /  1.4km/h 2.0mph /  3.2km/h 77% 0.00in /  0mm 0.0 W/m2
03:56 61.2 °F /  16.2 °C 54.0 °F /  12.2 °C 29.88in /  1011.7hPa Calm   1.0mph /  1.6km/h 77% 0.00in /  0mm 0.0 W/m2
04:02 61.2 °F /  16.2 °C 54.0 °F /  12.2 °C 29.88in /  1011.7hPa Calm   2.0mph /  3.2km/h 77% 0.00in /  0mm 0.0 W/m2
04:08 61.0 °F /  16.1 °C 54.1 °F /  12.3 °C 29.88in /  1011.7hPa Calm   1.0mph /  1.6km/h 78% 0.00in /  0mm 0.0 W/m2
04:15 61.0 °F /  16.1 °C 54.1 °F /  12.3 °C 29.88in /  1011.7hPa ENE 0.9mph /  1.4km/h 2.0mph /  3.2km/h 78% 0.00in /  0mm 0.0 W/m2
04:21 61.0 °F /  16.1 °C 54.1 °F /  12.3 °C 29.88in /  1011.7hPa Calm   1.0mph /  1.6km/h 78% 0.00in /  0mm 0.0 W/m2
04:27 61.0 °F /  16.1 °C 53.8 °F /  12.1 °C 29.88in /  1011.7hPa ESE 2.0mph /  3.2km/h 4.0mph /  6.4km/h 77% 0.00in /  0mm 0.0 W/m2
04:33 61.0 °F /  16.1 °C 54.1 °F /  12.3 °C 29.88in /  1011.7hPa Calm   1.0mph /  1.6km/h 78% 0.00in /  0mm 0.0 W/m2
04:39 61.0 °F /  16.1 °C 53.8 °F /  12.1 °C 29.88in /  1011.7hPa Calm   2.0mph /  3.2km/h 77% 0.00in /  0mm 0.0 W/m2
04:45 61.0 °F /  16.1 °C 54.1 °F /  12.3 °C 29.89in /  1012.1hPa Calm   3.0mph /  4.8km/h 78% 0.00in /  0mm 0.0 W/m2
04:51 61.0 °F /  16.1 °C 54.1 °F /  12.3 °C 29.89in /  1012.1hPa Calm   1.0mph /  1.6km/h 78% 0.00in /  0mm 0.0 W/m2
04:58 61.0 °F /  16.1 °C 53.8 °F /  12.1 °C 29.89in /  1012.1hPa Calm   1.0mph /  1.6km/h 77% 0.00in /  0mm 0.0 W/m2
05:04 61.0 °F /  16.1 °C 53.8 °F /  12.1 °C 29.89in /  1012.1hPa Calm   1.0mph /  1.6km/h 77% 0.00in /  0mm 0.0 W/m2
05:10 61.0 °F /  16.1 °C 53.8 °F /  12.1 °C 29.90in /  1012.4hPa Calm     77% 0.00in /  0mm 0.0 W/m2
05:16 61.0 °F /  16.1 °C 53.8 °F /  12.1 °C 29.90in /  1012.4hPa Calm   1.0mph /  1.6km/h 77% 0.00in /  0mm 0.0 W/m2
05:22 61.2 °F /  16.2 °C 54.0 °F /  12.2 °C 29.89in /  1012.1hPa Calm   4.0mph /  6.4km/h 77% 0.00in /  0mm 0.0 W/m2
05:28 61.2 °F /  16.2 °C 53.6 °F /  12 °C 29.90in /  1012.4hPa East 2.9mph /  4.7km/h 3.0mph /  4.8km/h 76% 0.00in /  0mm 0.0 W/m2
05:34 61.2 °F /  16.2 °C 52.9 °F /  11.6 °C 29.90in /  1012.4hPa Calm   3.0mph /  4.8km/h 74% 0.00in /  0mm 0.0 W/m2
05:40 61.3 °F /  16.3 °C 53.8 °F /  12.1 °C 29.90in /  1012.4hPa Calm   1.0mph /  1.6km/h 76% 0.00in /  0mm 0.0 W/m2
05:46 61.3 °F /  16.3 °C 54.1 °F /  12.3 °C 29.90in /  1012.4hPa Calm   3.0mph /  4.8km/h 77% 0.00in /  0mm 0.0 W/m2
05:52 61.2 °F /  16.2 °C 53.2 °F /  11.8 °C 29.90in /  1012.4hPa East 0.9mph /  1.4km/h 1.0mph /  1.6km/h 75% 0.00in /  0mm 0.0 W/m2
05:58 61.2 °F /  16.2 °C 52.9 °F /  11.6 °C 29.90in /  1012.4hPa Calm     74% 0.00in /  0mm 0.0 W/m2
06:04 61.2 °F /  16.2 °C 53.6 °F /  12 °C 29.91in /  1012.8hPa Calm   1.0mph /  1.6km/h 76% 0.00in /  0mm 0.0 W/m2
06:10 61.2 °F /  16.2 °C 54.0 °F /  12.2 °C 29.91in /  1012.8hPa Calm   1.0mph /  1.6km/h 77% 0.00in /  0mm 0.0 W/m2
06:16 61.2 °F /  16.2 °C 54.0 °F /  12.2 °C 29.91in /  1012.8hPa Calm   1.0mph /  1.6km/h 77% 0.00in /  0mm 9.0 W/m2
06:22 61.2 °F /  16.2 °C 54.0 °F /  12.2 °C 29.91in /  1012.8hPa Calm     77% 0.00in /  0mm 16.0 W/m2
06:28 61.2 °F /  16.2 °C 54.0 °F /  12.2 °C 29.91in /  1012.8hPa Calm   2.0mph /  3.2km/h 77% 0.00in /  0mm 30.0 W/m2
06:40 61.3 °F /  16.3 °C 53.1 °F /  11.7 °C 29.92in /  1013.1hPa NE 2.9mph /  4.7km/h 3.0mph /  4.8km/h 74% 0.00in /  0mm 62.0 W/m2
06:46 61.7 °F /  16.5 °C 52.2 °F /  11.2 °C 29.93in /  1013.4hPa Calm   3.0mph /  4.8km/h 71% 0.00in /  0mm 84.0 W/m2
06:52 62.2 °F /  16.8 °C 52.7 °F /  11.5 °C 29.93in /  1013.4hPa Calm   3.0mph /  4.8km/h 71% 0.00in /  0mm 98.0 W/m2
06:56 62.4 °F /  16.9 °C 52.5 °F /  11.4 °C 29.93in /  1013.4hPa East 2.9mph /  4.7km/h 5.0mph /  8km/h 70% 0.00in /  0mm 84.0 W/m2
07:02 63.0 °F /  17.2 °C 52.7 °F /  11.5 °C 29.93in /  1013.4hPa NE 0.9mph /  1.4km/h 4.0mph /  6.4km/h 69% 0.00in /  0mm 83.0 W/m2
07:08 63.1 °F /  17.3 °C 52.3 °F /  11.3 °C 29.93in /  1013.4hPa Calm   4.0mph /  6.4km/h 68% 0.00in /  0mm 98.0 W/m2
07:14 63.5 °F /  17.5 °C 52.7 °F /  11.5 °C 29.93in /  1013.4hPa North 2.9mph /  4.7km/h 5.0mph /  8km/h 68% 0.00in /  0mm 98.0 W/m2
07:20 63.9 °F /  17.7 °C 53.1 °F /  11.7 °C 29.93in /  1013.4hPa ESE 0.9mph /  1.4km/h 2.0mph /  3.2km/h 68% 0.00in /  0mm 104.0 W/m2
07:26 64.0 °F /  17.8 °C 52.9 °F /  11.6 °C 29.93in /  1013.4hPa ENE 2.0mph /  3.2km/h 5.0mph /  8km/h 67% 0.00in /  0mm 97.0 W/m2
07:32 64.2 °F /  17.9 °C 53.1 °F /  11.7 °C 29.93in /  1013.4hPa Calm   3.0mph /  4.8km/h 67% 0.00in /  0mm 88.0 W/m2
07:38 64.4 °F /  18 °C 53.2 °F /  11.8 °C 29.94in /  1013.8hPa NNE 2.0mph /  3.2km/h 4.0mph /  6.4km/h 67% 0.00in /  0mm 95.0 W/m2
07:44 64.6 °F /  18.1 °C 53.4 °F /  11.9 °C 29.94in /  1013.8hPa ENE 0.9mph /  1.4km/h 2.0mph /  3.2km/h 67% 0.00in /  0mm 169.0 W/m2
07:50 64.6 °F /  18.1 °C 53.8 °F /  12.1 °C 29.94in /  1013.8hPa Calm   4.0mph /  6.4km/h 68% 0.00in /  0mm 172.0 W/m2
07:56 64.9 °F /  18.3 °C 53.8 °F /  12.1 °C 29.95in /  1014.1hPa North 0.9mph /  1.4km/h 3.0mph /  4.8km/h 67% 0.00in /  0mm 185.0 W/m2
08:02 65.1 °F /  18.4 °C 53.4 °F /  11.9 °C 29.95in /  1014.1hPa Calm   1.0mph /  1.6km/h 66% 0.00in /  0mm 216.0 W/m2
08:08 65.5 °F /  18.6 °C 53.1 °F /  11.7 °C 29.94in /  1013.8hPa NNW 2.0mph /  3.2km/h 2.0mph /  3.2km/h 64% 0.00in /  0mm 241.0 W/m2
08:14 66.0 °F /  18.9 °C 53.4 °F /  11.9 °C 29.95in /  1014.1hPa NNW 0.9mph /  1.4km/h 3.0mph /  4.8km/h 64% 0.00in /  0mm 223.0 W/m2
08:20 66.6 °F /  19.2 °C 53.1 °F /  11.7 °C 29.95in /  1014.1hPa SE 0.9mph /  1.4km/h 3.0mph /  4.8km/h 62% 0.00in /  0mm 229.0 W/m2
08:26 67.5 °F /  19.7 °C 53.1 °F /  11.7 °C 29.95in /  1014.1hPa North 0.9mph /  1.4km/h 5.0mph /  8km/h 60% 0.00in /  0mm 271.0 W/m2
08:32 68.2 °F /  20.1 °C 52.9 °F /  11.6 °C 29.95in /  1014.1hPa NNW 4.0mph /  6.4km/h 6.0mph /  9.7km/h 58% 0.00in /  0mm 343.0 W/m2
08:38 68.5 °F /  20.3 °C 52.7 °F /  11.5 °C 29.95in /  1014.1hPa NW 2.9mph /  4.7km/h 5.0mph /  8km/h 57% 0.00in /  0mm 548.0 W/m2
08:44 69.1 °F /  20.6 °C 52.7 °F /  11.5 °C 29.95in /  1014.1hPa North 2.9mph /  4.7km/h 3.0mph /  4.8km/h 56% 0.00in /  0mm 274.0 W/m2
08:50 69.1 °F /  20.6 °C 53.2 °F /  11.8 °C 29.95in /  1014.1hPa NE 4.0mph /  6.4km/h 7.0mph /  11.3km/h 57% 0.00in /  0mm 318.0 W/m2
08:56 68.7 °F /  20.4 °C 52.9 °F /  11.6 °C 29.95in /  1014.1hPa NNE 4.9mph /  7.9km/h 6.0mph /  9.7km/h 57% 0.00in /  0mm 195.0 W/m2
09:02 68.4 °F /  20.2 °C 53.1 °F /  11.7 °C 29.96in /  1014.4hPa NNE 2.9mph /  4.7km/h 7.0mph /  11.3km/h 58% 0.00in /  0mm 195.0 W/m2
09:08 68.2 °F /  20.1 °C 53.2 °F /  11.8 °C 29.96in /  1014.4hPa NW 2.0mph /  3.2km/h 4.0mph /  6.4km/h 59% 0.00in /  0mm 181.0 W/m2
09:14 68.0 °F /  20 °C 56.7 °F /  13.7 °C 29.96in /  1014.4hPa NW 2.0mph /  3.2km/h 4.0mph /  6.4km/h 67% 0.00in /  0mm 169.0 W/m2
09:20 67.1 °F /  19.5 °C 57.0 °F /  13.9 °C 29.96in /  1014.4hPa NNW 0.9mph /  1.4km/h 2.0mph /  3.2km/h 70% 0.00in /  0mm 195.0 W/m2
09:26 66.6 °F /  19.2 °C 56.8 °F /  13.8 °C 29.96in /  1014.4hPa Calm   3.0mph /  4.8km/h 71% 0.00in /  0mm 202.0 W/m2
09:32 66.0 °F /  18.9 °C 55.9 °F /  13.3 °C 29.96in /  1014.4hPa NW 0.9mph /  1.4km/h 1.0mph /  1.6km/h 70% 0.00in /  0mm 207.0 W/m2
09:44 65.8 °F /  18.8 °C 55.4 °F /  13 °C 29.95in /  1014.1hPa NNW 2.9mph /  4.7km/h 4.0mph /  6.4km/h 69% 0.00in /  0mm 151.0 W/m2
09:50 65.7 °F /  18.7 °C 55.2 °F /  12.9 °C 29.96in /  1014.4hPa Calm   1.0mph /  1.6km/h 69% 0.00in /  0mm 121.0 W/m2
09:56 65.7 °F /  18.7 °C 55.2 °F /  12.9 °C 29.96in /  1014.4hPa NNW 0.9mph /  1.4km/h 1.0mph /  1.6km/h 69% 0.00in /  0mm 98.0 W/m2
10:02 65.7 °F /  18.7 °C 54.9 °F /  12.7 °C 29.96in /  1014.4hPa Calm   2.0mph /  3.2km/h 68% 0.00in /  0mm 90.0 W/m2
10:08 65.5 °F /  18.6 °C 54.3 °F /  12.4 °C 29.96in /  1014.4hPa Calm   1.0mph /  1.6km/h 67% 0.00in /  0mm 91.0 W/m2
10:14 65.5 °F /  18.6 °C 55.0 °F /  12.8 °C 29.96in /  1014.4hPa Calm   1.0mph /  1.6km/h 69% 0.00in /  0mm 104.0 W/m2
10:20 65.5 °F /  18.6 °C 55.0 °F /  12.8 °C 29.96in /  1014.4hPa Calm   1.0mph /  1.6km/h 69% 0.00in /  0mm 130.0 W/m2
10:27 65.7 °F /  18.7 °C 55.6 °F /  13.1 °C 29.96in /  1014.4hPa Calm   1.0mph /  1.6km/h 70% 0.00in /  0mm 156.0 W/m2
10:32 65.7 °F /  18.7 °C 54.9 °F /  12.7 °C 29.96in /  1014.4hPa Calm   2.0mph /  3.2km/h 68% 0.00in /  0mm 178.0 W/m2
10:45 66.0 °F /  18.9 °C 54.7 °F /  12.6 °C 29.96in /  1014.4hPa Calm   4.0mph /  6.4km/h 67% 0.00in /  0mm 250.0 W/m2
10:51 66.6 °F /  19.2 °C 55.2 °F /  12.9 °C 29.95in /  1014.1hPa Calm   2.0mph /  3.2km/h 67% 0.00in /  0mm 288.0 W/m2
10:56 66.7 °F /  19.3 °C 55.0 °F /  12.8 °C 29.95in /  1014.1hPa Calm   1.0mph /  1.6km/h 66% 0.00in /  0mm 311.0 W/m2
11:03 67.1 °F /  19.5 °C 55.4 °F /  13 °C 29.95in /  1014.1hPa West 2.0mph /  3.2km/h 2.0mph /  3.2km/h 66% 0.00in /  0mm 339.0 W/m2
11:15 67.6 °F /  19.8 °C 55.4 °F /  13 °C 29.95in /  1014.1hPa Calm     65% 0.00in /  0mm 380.0 W/m2
11:21 68.2 °F /  20.1 °C 55.9 °F /  13.3 °C 29.95in /  1014.1hPa Calm   1.0mph /  1.6km/h 65% 0.00in /  0mm 413.0 W/m2
11:27 68.5 °F /  20.3 °C 55.9 °F /  13.3 °C 29.94in /  1013.8hPa Calm   1.0mph /  1.6km/h 64% 0.00in /  0mm 461.0 W/m2
11:33 68.9 °F /  20.5 °C 55.8 °F /  13.2 °C 29.95in /  1014.1hPa NNE 2.0mph /  3.2km/h 3.0mph /  4.8km/h 63% 0.00in /  0mm 489.0 W/m2
11:39 69.4 °F /  20.8 °C 55.9 °F /  13.3 °C 29.94in /  1013.8hPa WNW 0.9mph /  1.4km/h 6.0mph /  9.7km/h 62% 0.00in /  0mm 432.0 W/m2
11:45 69.8 °F /  21 °C 55.8 °F /  13.2 °C 29.94in /  1013.8hPa NNE 2.9mph /  4.7km/h 6.0mph /  9.7km/h 61% 0.00in /  0mm 462.0 W/m2
11:51 70.2 °F /  21.2 °C 56.5 °F /  13.6 °C 29.93in /  1013.4hPa North 4.0mph /  6.4km/h 4.0mph /  6.4km/h 62% 0.00in /  0mm 408.0 W/m2
11:57 70.3 °F /  21.3 °C 55.8 °F /  13.2 °C 29.93in /  1013.4hPa Calm   3.0mph /  4.8km/h 60% 0.00in /  0mm 394.0 W/m2
12:03 70.5 °F /  21.4 °C 55.9 °F /  13.3 °C 29.93in /  1013.4hPa NNE 0.9mph /  1.4km/h 1.0mph /  1.6km/h 60% 0.00in /  0mm 380.0 W/m2
12:09 70.7 °F /  21.5 °C 56.1 °F /  13.4 °C 29.93in /  1013.4hPa NW 0.9mph /  1.4km/h 2.0mph /  3.2km/h 60% 0.00in /  0mm 383.0 W/m2
12:15 71.1 °F /  21.7 °C 56.5 °F /  13.6 °C 29.93in /  1013.4hPa Calm   2.0mph /  3.2km/h 60% 0.00in /  0mm 339.0 W/m2
12:21 71.1 °F /  21.7 °C 55.9 °F /  13.3 °C 29.92in /  1013.1hPa Calm   3.0mph /  4.8km/h 59% 0.00in /  0mm 325.0 W/m2
12:27 70.9 °F /  21.6 °C 55.4 °F /  13 °C 29.92in /  1013.1hPa Calm   1.0mph /  1.6km/h 58% 0.00in /  0mm 327.0 W/m2
12:33 70.9 °F /  21.6 °C 56.3 °F /  13.5 °C 29.92in /  1013.1hPa NNE 2.9mph /  4.7km/h 3.0mph /  4.8km/h 60% 0.00in /  0mm 350.0 W/m2
12:39 70.9 °F /  21.6 °C 55.4 °F /  13 °C 29.92in /  1013.1hPa NE 0.9mph /  1.4km/h 1.0mph /  1.6km/h 58% 0.00in /  0mm 364.0 W/m2
12:45 70.9 °F /  21.6 °C 55.4 °F /  13 °C 29.91in /  1012.8hPa Calm   2.0mph /  3.2km/h 58% 0.00in /  0mm 403.0 W/m2
12:51 71.1 °F /  21.7 °C 55.9 °F /  13.3 °C 29.91in /  1012.8hPa Calm     59% 0.00in /  0mm 809.0 W/m2
12:57 71.6 °F /  22 °C 55.6 °F /  13.1 °C 29.91in /  1012.8hPa Calm   1.0mph /  1.6km/h 57% 0.00in /  0mm 912.0 W/m2
13:03 72.5 °F /  22.5 °C 55.9 °F /  13.3 °C 29.90in /  1012.4hPa WNW 2.0mph /  3.2km/h 3.0mph /  4.8km/h 56% 0.00in /  0mm 821.0 W/m2
13:09 72.7 °F /  22.6 °C 54.5 °F /  12.5 °C 29.90in /  1012.4hPa ENE 2.0mph /  3.2km/h 3.0mph /  4.8km/h 53% 0.00in /  0mm 789.0 W/m2
13:15 73.0 °F /  22.8 °C 53.8 °F /  12.1 °C 29.89in /  1012.1hPa ENE 2.0mph /  3.2km/h 4.0mph /  6.4km/h 51% 0.00in /  0mm 773.0 W/m2
13:27 74.1 °F /  23.4 °C 53.8 °F /  12.1 °C 29.88in /  1011.7hPa Calm   3.0mph /  4.8km/h 49% 0.00in /  0mm 756.0 W/m2
13:33 74.8 °F /  23.8 °C 53.2 °F /  11.8 °C 29.88in /  1011.7hPa NNW 2.0mph /  3.2km/h 2.0mph /  3.2km/h 47% 0.00in /  0mm 738.0 W/m2
13:39 75.4 °F /  24.1 °C 53.2 °F /  11.8 °C 29.88in /  1011.7hPa North 2.0mph /  3.2km/h 5.0mph /  8km/h 46% 0.00in /  0mm 733.0 W/m2
13:45 75.9 °F /  24.4 °C 53.1 °F /  11.7 °C 29.87in /  1011.4hPa SSW 0.9mph /  1.4km/h 2.0mph /  3.2km/h 45% 0.00in /  0mm 719.0 W/m2
13:51 76.3 °F /  24.6 °C 53.4 °F /  11.9 °C 29.87in /  1011.4hPa ENE 2.9mph /  4.7km/h 3.0mph /  4.8km/h 45% 0.00in /  0mm 708.0 W/m2
13:57 76.5 °F /  24.7 °C 51.6 °F /  10.9 °C 29.87in /  1011.4hPa NNE 0.9mph /  1.4km/h 3.0mph /  4.8km/h 42% 0.00in /  0mm 700.0 W/m2
14:04 77.0 °F /  25 °C 51.4 °F /  10.8 °C 29.87in /  1011.4hPa Calm   3.0mph /  4.8km/h 41% 0.00in /  0mm 689.0 W/m2
14:09 77.5 °F /  25.3 °C 50.5 °F /  10.3 °C 29.87in /  1011.4hPa Calm   5.0mph /  8km/h 39% 0.00in /  0mm 679.0 W/m2
14:30 78.3 °F /  25.7 °C 51.3 °F /  10.7 °C 29.88in /  1011.7hPa Calm   2.0mph /  3.2km/h 39% 0.00in /  0mm 622.0 W/m2
14:35 78.4 °F /  25.8 °C 50.7 °F /  10.4 °C 29.88in /  1011.7hPa NNE 0.9mph /  1.4km/h 4.0mph /  6.4km/h 38% 0.00in /  0mm 621.0 W/m2
14:46 78.3 °F /  25.7 °C 49.8 °F /  9.9 °C 29.88in /  1011.7hPa NNE 0.9mph /  1.4km/h 4.0mph /  6.4km/h 37% 0.00in /  0mm 622.0 W/m2
14:52 78.1 °F /  25.6 °C 50.4 °F /  10.2 °C 29.87in /  1011.4hPa NNE 7.0mph /  11.3km/h 7.0mph /  11.3km/h 38% 0.00in /  0mm 578.0 W/m2
15:00 77.9 °F /  25.5 °C 50.2 °F /  10.1 °C 29.88in /  1011.7hPa North 2.0mph /  3.2km/h 3.0mph /  4.8km/h 38% 0.00in /  0mm 543.0 W/m2
15:06 78.4 °F /  25.8 °C 50.7 °F /  10.4 °C 29.87in /  1011.4hPa Calm   3.0mph /  4.8km/h 38% 0.00in /  0mm 550.0 W/m2
15:14 78.3 °F /  25.7 °C 52.0 °F /  11.1 °C 29.87in /  1011.4hPa NNW 0.9mph /  1.4km/h 7.0mph /  11.3km/h 40% 0.00in /  0mm 601.0 W/m2
15:21 78.3 °F /  25.7 °C 52.7 °F /  11.5 °C 29.87in /  1011.4hPa SW 0.9mph /  1.4km/h 2.0mph /  3.2km/h 41% 0.00in /  0mm 624.0 W/m2
15:27 78.3 °F /  25.7 °C 52.0 °F /  11.1 °C 29.87in /  1011.4hPa North 2.0mph /  3.2km/h 2.0mph /  3.2km/h 40% 0.00in /  0mm 603.0 W/m2
15:33 78.3 °F /  25.7 °C 52.0 °F /  11.1 °C 29.87in /  1011.4hPa NNW 2.9mph /  4.7km/h 4.0mph /  6.4km/h 40% 0.00in /  0mm 494.0 W/m2
15:39 78.4 °F /  25.8 °C 50.7 °F /  10.4 °C 29.87in /  1011.4hPa North 2.9mph /  4.7km/h 3.0mph /  4.8km/h 38% 0.00in /  0mm 589.0 W/m2
15:45 78.4 °F /  25.8 °C 52.2 °F /  11.2 °C 29.87in /  1011.4hPa NNW 0.9mph /  1.4km/h 2.0mph /  3.2km/h 40% 0.00in /  0mm 503.0 W/m2
15:51 78.4 °F /  25.8 °C 50.7 °F /  10.4 °C 29.87in /  1011.4hPa WSW 4.9mph /  7.9km/h 5.0mph /  8km/h 38% 0.00in /  0mm 501.0 W/m2
16:04 75.4 °F /  24.1 °C 50.0 °F /  10 °C 29.88in /  1011.7hPa West 2.9mph /  4.7km/h 11.0mph /  17.7km/h 41% 0.00in /  0mm 425.0 W/m2
16:10 74.7 °F /  23.7 °C 45.9 °F /  7.7 °C 29.88in /  1011.7hPa South 2.9mph /  4.7km/h 10.0mph /  16.1km/h 36% 0.00in /  0mm 81.0 W/m2
16:16 74.1 °F /  23.4 °C 43.9 °F /  6.6 °C 29.88in /  1011.7hPa SE 2.0mph /  3.2km/h 10.0mph /  16.1km/h 34% 0.00in /  0mm 49.0 W/m2
16:24 73.2 °F /  22.9 °C 44.6 °F /  7 °C 29.88in /  1011.7hPa Calm   3.0mph /  4.8km/h 36% 0.00in /  0mm 39.0 W/m2
16:30 72.7 °F /  22.6 °C 45.0 °F /  7.2 °C 29.88in /  1011.7hPa SE 0.9mph /  1.4km/h 5.0mph /  8km/h 37% 0.00in /  0mm 33.0 W/m2
16:36 72.1 °F /  22.3 °C 45.1 °F /  7.3 °C 29.88in /  1011.7hPa SE 2.0mph /  3.2km/h 4.0mph /  6.4km/h 38% 0.00in /  0mm 30.0 W/m2
16:42 71.8 °F /  22.1 °C 46.8 °F /  8.2 °C 29.89in /  1012.1hPa SE 2.9mph /  4.7km/h 7.0mph /  11.3km/h 41% 0.00in /  0mm 26.0 W/m2
16:48 71.1 °F /  21.7 °C 48.6 °F /  9.2 °C 29.90in /  1012.4hPa South 6.0mph /  9.7km/h 9.0mph /  14.5km/h 45% 0.00in /  0mm 23.0 W/m2
16:54 70.3 °F /  21.3 °C 51.8 °F /  11 °C 29.91in /  1012.8hPa West 0.9mph /  1.4km/h 8.0mph /  12.9km/h 52% 0.00in /  0mm 18.0 W/m2
17:00 69.3 °F /  20.7 °C 51.4 °F /  10.8 °C 29.91in /  1012.8hPa SSE 2.9mph /  4.7km/h 8.0mph /  12.9km/h 53% 0.00in /  0mm 12.0 W/m2
17:06 68.4 °F /  20.2 °C 51.1 °F /  10.6 °C 29.91in /  1012.8hPa SE 8.1mph /  13km/h 12.0mph /  19.3km/h 54% 0.00in /  0mm 7.0 W/m2
17:12 67.6 °F /  19.8 °C 50.4 °F /  10.2 °C 29.91in /  1012.8hPa ESE 4.0mph /  6.4km/h 7.0mph /  11.3km/h 54% 0.00in /  0mm 5.0 W/m2
17:18 66.9 °F /  19.4 °C 49.3 °F /  9.6 °C 29.90in /  1012.4hPa SSW 2.9mph /  4.7km/h 10.0mph /  16.1km/h 53% 0.00in /  0mm 0.0 W/m2
17:24 66.7 °F /  19.3 °C 50.0 °F /  10 °C 29.91in /  1012.8hPa SSW 2.0mph /  3.2km/h 3.0mph /  4.8km/h 55% 0.00in /  0mm 0.0 W/m2
17:30 66.4 °F /  19.1 °C 49.3 °F /  9.6 °C 29.91in /  1012.8hPa WSW 2.9mph /  4.7km/h 6.0mph /  9.7km/h 54% 0.00in /  0mm 0.0 W/m2
17:37 66.2 °F /  19 °C 49.1 °F /  9.5 °C 29.91in /  1012.8hPa WSW 2.9mph /  4.7km/h 8.0mph /  12.9km/h 54% 0.00in /  0mm 0.0 W/m2
17:43 65.8 °F /  18.8 °C 49.3 °F /  9.6 °C 29.92in /  1013.1hPa WSW 2.9mph /  4.7km/h 8.0mph /  12.9km/h 55% 0.00in /  0mm 0.0 W/m2
17:49 66.0 °F /  18.9 °C 48.9 °F /  9.4 °C 29.92in /  1013.1hPa WSW 0.9mph /  1.4km/h 4.0mph /  6.4km/h 54% 0.00in /  0mm 0.0 W/m2
17:55 66.2 °F /  19 °C 48.0 °F /  8.9 °C 29.92in /  1013.1hPa SSE 0.9mph /  1.4km/h 5.0mph /  8km/h 52% 0.00in /  0mm 0.0 W/m2
18:01 66.4 °F /  19.1 °C 49.3 °F /  9.6 °C 29.93in /  1013.4hPa Calm   2.0mph /  3.2km/h 54% 0.00in /  0mm 0.0 W/m2
18:07 66.4 °F /  19.1 °C 49.3 °F /  9.6 °C 29.94in /  1013.8hPa Calm   3.0mph /  4.8km/h 54% 0.00in /  0mm 0.0 W/m2
18:13 66.0 °F /  18.9 °C 49.8 °F /  9.9 °C 29.94in /  1013.8hPa WSW 0.9mph /  1.4km/h 4.0mph /  6.4km/h 56% 0.00in /  0mm 0.0 W/m2
18:20 65.7 °F /  18.7 °C 50.0 °F /  10 °C 29.94in /  1013.8hPa ENE 2.0mph /  3.2km/h 6.0mph /  9.7km/h 57% 0.00in /  0mm 0.0 W/m2
18:26 65.5 °F /  18.6 °C 51.3 °F /  10.7 °C 29.95in /  1014.1hPa SSW 2.0mph /  3.2km/h 2.0mph /  3.2km/h 60% 0.00in /  0mm 0.0 W/m2
18:32 65.3 °F /  18.5 °C 52.0 °F /  11.1 °C 29.95in /  1014.1hPa Calm   4.0mph /  6.4km/h 62% 0.00in /  0mm 0.0 W/m2
18:38 64.9 °F /  18.3 °C 51.6 °F /  10.9 °C 29.95in /  1014.1hPa WSW 0.9mph /  1.4km/h 3.0mph /  4.8km/h 62% 0.00in /  0mm 0.0 W/m2
18:44 64.6 °F /  18.1 °C 50.0 °F /  10 °C 29.95in /  1014.1hPa SSW 4.0mph /  6.4km/h 9.0mph /  14.5km/h 59% 0.00in /  0mm 0.0 W/m2
18:50 64.6 °F /  18.1 °C 52.2 °F /  11.2 °C 29.95in /  1014.1hPa SE 0.9mph /  1.4km/h 6.0mph /  9.7km/h 64% 0.00in /  0mm 0.0 W/m2
18:56 64.0 °F /  17.8 °C 52.5 °F /  11.4 °C 29.95in /  1014.1hPa Calm   1.0mph /  1.6km/h 66% 0.00in /  0mm 0.0 W/m2
19:03 63.9 °F /  17.7 °C 52.7 °F /  11.5 °C 29.95in /  1014.1hPa Calm   3.0mph /  4.8km/h 67% 0.00in /  0mm 0.0 W/m2
19:09 63.9 °F /  17.7 °C 51.8 °F /  11 °C 29.94in /  1013.8hPa Calm   1.0mph /  1.6km/h 65% 0.00in /  0mm 0.0 W/m2
19:15 63.7 °F /  17.6 °C 53.2 °F /  11.8 °C 29.94in /  1013.8hPa ENE 2.0mph /  3.2km/h 4.0mph /  6.4km/h 69% 0.00in /  0mm 0.0 W/m2
19:21 63.3 °F /  17.4 °C 53.4 °F /  11.9 °C 29.94in /  1013.8hPa NNE 4.0mph /  6.4km/h 5.0mph /  8km/h 70% 0.00in /  0mm 0.0 W/m2
19:27 63.0 °F /  17.2 °C 53.4 °F /  11.9 °C 29.95in /  1014.1hPa ESE 0.9mph /  1.4km/h 3.0mph /  4.8km/h 71% 0.00in /  0mm 0.0 W/m2
19:33 62.8 °F /  17.1 °C 53.6 °F /  12 °C 29.95in /  1014.1hPa East 0.9mph /  1.4km/h 3.0mph /  4.8km/h 72% 0.00in /  0mm 0.0 W/m2
19:39 62.4 °F /  16.9 °C 53.2 °F /  11.8 °C 29.95in /  1014.1hPa ESE 0.9mph /  1.4km/h 3.0mph /  4.8km/h 72% 0.00in /  0mm 0.0 W/m2
19:45 62.4 °F /  16.9 °C 52.9 °F /  11.6 °C 29.96in /  1014.4hPa Calm   6.0mph /  9.7km/h 71% 0.00in /  0mm 0.0 W/m2
19:52 62.2 °F /  16.8 °C 52.7 °F /  11.5 °C 29.96in /  1014.4hPa Calm   5.0mph /  8km/h 71% 0.00in /  0mm 0.0 W/m2
19:58 62.2 °F /  16.8 °C 52.7 °F /  11.5 °C 29.96in /  1014.4hPa SE 0.9mph /  1.4km/h 3.0mph /  4.8km/h 71% 0.00in /  0mm 0.0 W/m2
20:04 62.2 °F /  16.8 °C 53.1 °F /  11.7 °C 29.97in /  1014.8hPa South 2.9mph /  4.7km/h 6.0mph /  9.7km/h 72% 0.00in /  0mm 0.0 W/m2
20:10 62.2 °F /  16.8 °C 52.7 °F /  11.5 °C 29.97in /  1014.8hPa Calm   1.0mph /  1.6km/h 71% 0.00in /  0mm 0.0 W/m2
20:16 62.2 °F /  16.8 °C 52.3 °F /  11.3 °C 29.97in /  1014.8hPa SSE 2.0mph /  3.2km/h 5.0mph /  8km/h 70% 0.00in /  0mm 0.0 W/m2
20:22 62.4 °F /  16.9 °C 52.5 °F /  11.4 °C 29.97in /  1014.8hPa Calm   2.0mph /  3.2km/h 70% 0.00in /  0mm 0.0 W/m2
20:28 62.4 °F /  16.9 °C 52.5 °F /  11.4 °C 29.97in /  1014.8hPa Calm     70% 0.00in /  0mm 0.0 W/m2
20:34 62.4 °F /  16.9 °C 51.8 °F /  11 °C 29.97in /  1014.8hPa SE 0.9mph /  1.4km/h 5.0mph /  8km/h 68% 0.00in /  0mm 0.0 W/m2
20:40 62.4 °F /  16.9 °C 51.8 °F /  11 °C 29.97in /  1014.8hPa ESE 2.9mph /  4.7km/h 7.0mph /  11.3km/h 68% 0.00in /  0mm 0.0 W/m2
20:47 62.4 °F /  16.9 °C 52.2 °F /  11.2 °C 29.97in /  1014.8hPa SE 0.9mph /  1.4km/h 3.0mph /  4.8km/h 69% 0.00in /  0mm 0.0 W/m2
20:53 62.2 °F /  16.8 °C 52.0 °F /  11.1 °C 29.97in /  1014.8hPa South 0.9mph /  1.4km/h 4.0mph /  6.4km/h 69% 0.00in /  0mm 0.0 W/m2
20:59 62.2 °F /  16.8 °C 51.6 °F /  10.9 °C 29.98in /  1015.1hPa SSE 0.9mph /  1.4km/h 5.0mph /  8km/h 68% 0.00in /  0mm 0.0 W/m2
21:05 62.2 °F /  16.8 °C 51.1 °F /  10.6 °C 29.98in /  1015.1hPa SSE 2.0mph /  3.2km/h 6.0mph /  9.7km/h 67% 0.00in /  0mm 0.0 W/m2
21:11 62.2 °F /  16.8 °C 52.0 °F /  11.1 °C 29.97in /  1014.8hPa SSE 4.0mph /  6.4km/h 5.0mph /  8km/h 69% 0.00in /  0mm 0.0 W/m2
21:17 62.2 °F /  16.8 °C 52.0 °F /  11.1 °C 29.97in /  1014.8hPa SE 4.0mph /  6.4km/h 7.0mph /  11.3km/h 69% 0.00in /  0mm 0.0 W/m2
21:24 62.1 °F /  16.7 °C 51.4 °F /  10.8 °C 29.96in /  1014.4hPa SE 4.0mph /  6.4km/h 8.0mph /  12.9km/h 68% 0.00in /  0mm 0.0 W/m2
21:30 62.2 °F /  16.8 °C 51.1 °F /  10.6 °C 29.96in /  1014.4hPa SE 2.9mph /  4.7km/h 8.0mph /  12.9km/h 67% 0.00in /  0mm 0.0 W/m2
21:36 62.2 °F /  16.8 °C 51.1 °F /  10.6 °C 29.96in /  1014.4hPa ESE 0.9mph /  1.4km/h 5.0mph /  8km/h 67% 0.00in /  0mm 0.0 W/m2
21:42 62.2 °F /  16.8 °C 51.1 °F /  10.6 °C 29.96in /  1014.4hPa SE 2.9mph /  4.7km/h 3.0mph /  4.8km/h 67% 0.00in /  0mm 0.0 W/m2
21:48 62.4 °F /  16.9 °C 50.9 °F /  10.5 °C 29.96in /  1014.4hPa SE 2.0mph /  3.2km/h 4.0mph /  6.4km/h 66% 0.00in /  0mm 0.0 W/m2
21:54 62.4 °F /  16.9 °C 50.9 °F /  10.5 °C 29.96in /  1014.4hPa Calm   4.0mph /  6.4km/h 66% 0.00in /  0mm 0.0 W/m2
22:00 62.4 °F /  16.9 °C 50.5 °F /  10.3 °C 29.96in /  1014.4hPa South 2.9mph /  4.7km/h 3.0mph /  4.8km/h 65% 0.00in /  0mm 0.0 W/m2
22:06 62.6 °F /  17 °C 49.8 °F /  9.9 °C 29.96in /  1014.4hPa Calm   2.0mph /  3.2km/h 63% 0.00in /  0mm 0.0 W/m2
22:13 62.8 °F /  17.1 °C 50.4 °F /  10.2 °C 29.96in /  1014.4hPa Calm   1.0mph /  1.6km/h 64% 0.00in /  0mm 0.0 W/m2
22:19 62.8 °F /  17.1 °C 50.4 °F /  10.2 °C 29.96in /  1014.4hPa WSW 0.9mph /  1.4km/h 2.0mph /  3.2km/h 64% 0.00in /  0mm 0.0 W/m2
22:25 62.8 °F /  17.1 °C 50.9 °F /  10.5 °C 29.96in /  1014.4hPa Calm   1.0mph /  1.6km/h 65% 0.00in /  0mm 0.0 W/m2
22:31 62.6 °F /  17 °C 51.1 °F /  10.6 °C 29.96in /  1014.4hPa Calm   1.0mph /  1.6km/h 66% 0.00in /  0mm 0.0 W/m2
22:37 62.4 °F /  16.9 °C 50.9 °F /  10.5 °C 29.96in /  1014.4hPa Calm     66% 0.00in /  0mm 0.0 W/m2
22:43 62.2 °F /  16.8 °C 51.1 °F /  10.6 °C 29.96in /  1014.4hPa Calm     67% 0.00in /  0mm 0.0 W/m2
22:50 62.1 °F /  16.7 °C 51.4 °F /  10.8 °C 29.96in /  1014.4hPa NNE 0.9mph /  1.4km/h 1.0mph /  1.6km/h 68% 0.00in /  0mm 0.0 W/m2
22:56 62.1 °F /  16.7 °C 51.4 °F /  10.8 °C 29.95in /  1014.1hPa Calm     68% 0.00in /  0mm 0.0 W/m2
23:02 61.9 °F /  16.6 °C 51.3 °F /  10.7 °C 29.96in /  1014.4hPa Calm     68% 0.00in /  0mm 0.0 W/m2
23:08 61.9 °F /  16.6 °C 51.6 °F /  10.9 °C 29.96in /  1014.4hPa Calm   1.0mph /  1.6km/h 69% 0.00in /  0mm 0.0 W/m2
23:14 61.7 °F /  16.5 °C 51.1 °F /  10.6 °C 29.96in /  1014.4hPa Calm   1.0mph /  1.6km/h 68% 0.00in /  0mm 0.0 W/m2
23:20 61.7 °F /  16.5 °C 51.4 °F /  10.8 °C 29.96in /  1014.4hPa Calm   1.0mph /  1.6km/h 69% 0.00in /  0mm 0.0 W/m2
23:26 61.5 °F /  16.4 °C 51.6 °F /  10.9 °C 29.96in /  1014.4hPa Calm     70% 0.00in /  0mm 0.0 W/m2
23:32 61.5 °F /  16.4 °C 51.6 °F /  10.9 °C 29.96in /  1014.4hPa Calm   4.0mph /  6.4km/h 70% 0.00in /  0mm 0.0 W/m2
23:38 61.3 °F /  16.3 °C 51.4 °F /  10.8 °C 29.96in /  1014.4hPa ENE 0.9mph /  1.4km/h 9.0mph /  14.5km/h 70% 0.00in /  0mm 0.0 W/m2
23:44 61.0 °F /  16.1 °C 52.0 °F /  11.1 °C 29.95in /  1014.1hPa NNE 2.0mph /  3.2km/h 8.0mph /  12.9km/h 72% 0.00in /  0mm 0.0 W/m2
23:51 60.4 °F /  15.8 °C 52.2 °F /  11.2 °C 29.95in /  1014.1hPa ENE 0.9mph /  1.4km/h 6.0mph /  9.7km/h 74% 0.00in /  0mm 0.0 W/m2
23:57 59.9 °F /  15.5 °C 52.0 °F /  11.1 °C 29.95in /  1014.1hPa NE 10.1mph /  16.3km/h 10.1mph /  16.3km/h 75% 0.00in /  0mm 0.0 W/m2
Olympia, Windhoek, Namibia
Compliments of Weather Underground - 3 mb